createdAt,value
2023-05-11T00:00:49.221Z,25.20
2023-05-11T00:03:16.372Z,16.30
2023-05-11T00:05:47.776Z,16.23
2023-05-11T00:08:17.139Z,23.33
2023-05-11T00:10:48.607Z,20.83
2023-05-11T00:13:16.170Z,18.27
2023-05-11T00:15:43.302Z,22.17
2023-05-11T00:18:10.502Z,24.77
2023-05-11T00:20:37.507Z,19.80
2023-05-11T00:23:04.520Z,19.17
2023-05-11T00:25:31.528Z,25.97
2023-05-11T00:27:58.471Z,24.77
2023-05-11T00:30:25.771Z,21.37
2023-05-11T00:32:52.785Z,26.90
2023-05-11T00:35:19.857Z,22.23
2023-05-11T00:37:46.891Z,27.67
2023-05-11T00:40:13.876Z,29.90
2023-05-11T00:42:40.932Z,21.93
2023-05-11T00:45:08.445Z,27.40
2023-05-11T00:47:35.375Z,21.20
2023-05-11T00:50:02.505Z,21.60
2023-05-11T00:52:30.495Z,23.93
2023-05-11T00:54:57.479Z,20.37
2023-05-11T00:57:24.524Z,27.93
2023-05-11T00:59:51.421Z,28.03
2023-05-11T01:02:18.849Z,23.13
2023-05-11T01:04:46.277Z,25.60
2023-05-11T01:07:24.220Z,20.47
2023-05-11T01:10:24.401Z,27.63
2023-05-11T01:13:07.501Z,21.50
2023-05-11T01:15:51.071Z,22.37
2023-05-11T01:18:28.825Z,19.63
2023-05-11T01:21:05.843Z,18.40
2023-05-11T01:24:13.794Z,26.07
2023-05-11T01:27:18.376Z,30.23
2023-05-11T01:29:50.543Z,25.97
2023-05-11T01:32:23.576Z,27.87
2023-05-11T01:35:02.865Z,26.93
2023-05-11T01:37:33.518Z,26.57
2023-05-11T01:40:07.235Z,28.57
2023-05-11T01:42:49.081Z,33.63
2023-05-11T01:45:17.318Z,18.87
2023-05-11T01:47:48.441Z,18.30
2023-05-11T01:50:19.537Z,23.50
2023-05-11T01:52:48.935Z,21.87
2023-05-11T01:55:21.277Z,24.77
2023-05-11T01:57:53.530Z,25.13
2023-05-11T02:00:21.328Z,28.07
2023-05-11T02:02:49.302Z,21.40
2023-05-11T02:05:21.749Z,15.37
2023-05-11T02:07:51.351Z,22.43
2023-05-11T02:10:20.031Z,19.13
2023-05-11T02:12:49.019Z,18.50
2023-05-11T02:15:17.427Z,23.50
2023-05-11T02:17:44.583Z,20.80
2023-05-11T02:20:12.316Z,26.03
2023-05-11T02:22:39.792Z,16.27
2023-05-11T02:25:09.352Z,22.27
2023-05-11T02:27:36.331Z,20.80
2023-05-11T02:30:05.372Z,24.90
2023-05-11T02:32:36.051Z,22.07
2023-05-11T02:35:29.948Z,31.83
2023-05-11T02:38:00.703Z,23.73
2023-05-11T02:40:34.320Z,27.07
2023-05-11T02:43:09.457Z,22.07
2023-05-11T02:45:39.244Z,34.53
2023-05-11T02:48:12.318Z,35.67
2023-05-11T02:50:42.193Z,36.53
2023-05-11T02:53:15.786Z,30.30
2023-05-11T02:55:43.153Z,32.80
2023-05-11T02:58:10.407Z,29.77
2023-05-11T03:00:39.555Z,37.73
2023-05-11T03:03:06.855Z,37.37
2023-05-11T03:05:33.865Z,40.73
2023-05-11T03:08:01.692Z,36.07
2023-05-11T03:10:29.532Z,29.70
2023-05-11T03:12:56.956Z,39.20
2023-05-11T03:15:24.734Z,27.00
2023-05-11T03:17:52.904Z,31.73
2023-05-11T03:20:22.394Z,39.30
2023-05-11T03:22:50.090Z,32.03
2023-05-11T03:25:18.229Z,27.90
2023-05-11T03:27:47.024Z,33.17
2023-05-11T03:30:15.947Z,33.07
2023-05-11T03:32:43.305Z,30.57
2023-05-11T03:35:10.706Z,31.47
2023-05-11T03:37:39.138Z,28.53
2023-05-11T03:40:07.952Z,40.70
2023-05-11T03:42:36.499Z,34.50
2023-05-11T03:45:06.385Z,35.63
2023-05-11T03:47:34.839Z,42.53
2023-05-11T03:50:02.895Z,38.00
2023-05-11T03:52:30.798Z,35.37
2023-05-11T03:54:57.767Z,34.73
2023-05-11T03:57:27.934Z,31.40
2023-05-11T03:59:54.931Z,36.30
2023-05-11T04:02:24.576Z,43.00
2023-05-11T04:04:54.776Z,31.20
2023-05-11T04:07:21.784Z,33.00
2023-05-11T04:09:48.722Z,43.77
2023-05-11T04:12:15.756Z,35.63
2023-05-11T04:14:42.687Z,37.80
2023-05-11T04:17:10.187Z,31.93
2023-05-11T04:19:37.144Z,37.93
2023-05-11T04:22:04.061Z,40.70
2023-05-11T04:24:30.992Z,31.17
2023-05-11T04:26:58.077Z,28.20
2023-05-11T04:29:25.725Z,32.57
2023-05-11T04:31:55.194Z,34.83
2023-05-11T04:34:22.361Z,36.50
2023-05-11T04:36:50.862Z,31.57
2023-05-11T04:39:18.890Z,30.50
2023-05-11T04:41:46.167Z,46.67
2023-05-11T04:44:13.165Z,33.53
2023-05-11T04:46:40.186Z,31.53
2023-05-11T04:49:07.492Z,33.33
2023-05-11T04:51:34.458Z,33.90
2023-05-11T04:54:01.400Z,37.63
2023-05-11T04:56:28.334Z,38.50
2023-05-11T04:58:55.234Z,27.67
2023-05-11T05:01:22.200Z,37.00
2023-05-11T05:03:49.964Z,30.03
2023-05-11T05:06:16.995Z,42.03
2023-05-11T05:08:43.961Z,41.60
2023-05-11T05:11:11.056Z,37.30
2023-05-11T05:13:38.062Z,34.10
2023-05-11T05:16:05.485Z,41.60
2023-05-11T05:18:32.448Z,30.10
2023-05-11T05:20:59.435Z,32.40
2023-05-11T05:23:26.554Z,37.93
2023-05-11T05:25:53.594Z,34.93
2023-05-11T05:28:21.102Z,37.63
2023-05-11T05:30:48.079Z,47.77
2023-05-11T05:33:15.262Z,40.47
2023-05-11T05:35:43.940Z,36.40
2023-05-11T05:38:10.965Z,38.90
2023-05-11T05:40:39.468Z,39.90
2023-05-11T05:43:06.936Z,39.30
2023-05-11T05:45:33.924Z,45.90
2023-05-11T05:48:00.922Z,33.73
2023-05-11T05:50:28.422Z,34.27
2023-05-11T05:52:55.376Z,40.23
2023-05-11T05:55:22.423Z,43.13
2023-05-11T05:57:49.715Z,40.93
2023-05-11T06:00:17.534Z,37.70
2023-05-11T06:02:44.747Z,39.83
2023-05-11T06:05:11.805Z,44.47
2023-05-11T06:07:39.065Z,40.13
2023-05-11T06:10:06.591Z,36.93
2023-05-11T06:12:33.575Z,35.70
2023-05-11T06:15:00.611Z,40.57
2023-05-11T06:17:28.534Z,37.80
2023-05-11T06:19:55.613Z,37.67
2023-05-11T06:22:22.773Z,35.80
2023-05-11T06:24:49.941Z,40.17
2023-05-11T06:27:18.365Z,37.87
2023-05-11T06:29:45.839Z,37.53
2023-05-11T06:32:12.745Z,33.40
2023-05-11T06:34:39.696Z,35.37
2023-05-11T06:37:06.732Z,36.97
2023-05-11T06:39:37.727Z,35.53
2023-05-11T06:42:06.638Z,29.87
2023-05-11T06:44:34.532Z,35.50
2023-05-11T06:47:01.508Z,36.13
2023-05-11T06:49:28.815Z,32.30
2023-05-11T06:51:55.859Z,30.23
2023-05-11T06:54:23.130Z,34.13
2023-05-11T06:56:50.148Z,31.13
2023-05-11T06:59:17.212Z,34.10
2023-05-11T07:01:45.518Z,37.67
2023-05-11T07:04:12.581Z,33.23
2023-05-11T07:06:39.596Z,37.27
2023-05-11T07:09:06.677Z,28.00
2023-05-11T07:11:33.821Z,28.47
2023-05-11T07:14:00.869Z,27.80
2023-05-11T07:16:27.786Z,28.30
2023-05-11T07:18:55.011Z,28.43
2023-05-11T07:21:22.291Z,33.10
2023-05-11T07:23:49.266Z,30.23
2023-05-11T07:26:16.471Z,34.37
2023-05-11T07:28:43.405Z,27.13
2023-05-11T07:31:10.415Z,25.40
2023-05-11T07:33:40.822Z,30.60
2023-05-11T07:36:08.422Z,40.40
2023-05-11T07:38:36.439Z,25.87
2023-05-11T07:41:06.485Z,26.33
2023-05-11T07:43:33.891Z,31.50
2023-05-11T07:46:00.820Z,36.10
2023-05-11T07:48:27.743Z,25.67
2023-05-11T07:50:54.723Z,32.97
2023-05-11T07:53:21.679Z,28.00
2023-05-11T07:55:48.766Z,33.43
2023-05-11T07:58:15.801Z,26.23
2023-05-11T08:00:42.795Z,35.30
2023-05-11T08:03:09.742Z,28.70
2023-05-11T08:05:38.024Z,30.00
2023-05-11T08:08:05.807Z,28.63
2023-05-11T08:10:32.768Z,20.13
2023-05-11T08:12:59.758Z,33.27
2023-05-11T08:15:26.987Z,26.90
2023-05-11T08:17:54.033Z,23.73
2023-05-11T08:20:21.062Z,27.37
2023-05-11T08:22:48.109Z,27.27
2023-05-11T08:25:15.068Z,32.53
2023-05-11T08:27:42.161Z,32.90
2023-05-11T08:30:11.673Z,29.47
2023-05-11T08:32:54.600Z,26.83
2023-05-11T08:35:25.910Z,29.42
2023-05-11T08:37:52.878Z,32.80
2023-05-11T08:40:21.835Z,29.92
2023-05-11T08:42:55.691Z,25.42
2023-05-11T08:45:23.338Z,28.03
2023-05-11T08:47:50.366Z,29.70
2023-05-11T08:50:17.768Z,31.40
2023-05-11T08:52:44.955Z,42.10
2023-05-11T08:55:13.294Z,32.07
2023-05-11T08:57:42.768Z,33.87
2023-05-11T09:00:10.579Z,36.83
2023-05-11T09:02:38.343Z,43.50
2023-05-11T09:05:06.555Z,37.70
2023-05-11T09:07:37.318Z,32.87
2023-05-11T09:10:04.844Z,30.75
2023-05-11T09:12:31.969Z,31.08
2023-05-11T09:15:02.123Z,33.10
2023-05-11T09:17:29.577Z,26.67
2023-05-11T09:20:05.822Z,30.23
2023-05-11T09:22:36.603Z,34.50
2023-05-11T09:25:04.867Z,29.20
2023-05-11T09:27:32.460Z,32.58
2023-05-11T09:30:22.009Z,30.05
2023-05-11T09:32:56.066Z,31.58
2023-05-11T09:35:30.987Z,31.67
2023-05-11T09:38:04.097Z,24.90
2023-05-11T09:40:50.981Z,31.90
2023-05-11T09:43:30.874Z,30.10
2023-05-11T09:46:07.838Z,25.10
2023-05-11T09:48:35.391Z,26.63
2023-05-11T09:51:07.712Z,18.92
2023-05-11T09:53:44.100Z,30.60
2023-05-11T09:56:12.568Z,22.52
2023-05-11T09:59:05.837Z,22.50
2023-05-11T10:01:34.689Z,23.55
2023-05-11T10:04:21.505Z,27.10
2023-05-11T10:06:53.953Z,24.40
2023-05-11T10:09:27.538Z,25.35
2023-05-11T10:11:56.603Z,28.83
2023-05-11T10:14:27.640Z,27.30
2023-05-11T10:16:57.917Z,25.80
2023-05-11T10:19:25.208Z,24.10
2023-05-11T10:21:52.883Z,27.70
2023-05-11T10:24:20.714Z,28.38
2023-05-11T10:26:48.687Z,24.50
2023-05-11T10:29:19.233Z,25.02
2023-05-11T10:31:48.416Z,24.58
2023-05-11T10:34:16.743Z,25.52
2023-05-11T10:36:46.494Z,29.13
2023-05-11T10:39:13.422Z,25.83
2023-05-11T10:41:51.819Z,23.33
2023-05-11T10:44:33.548Z,27.73
2023-05-11T10:47:18.486Z,25.38
2023-05-11T10:50:16.598Z,28.20
2023-05-11T10:53:13.096Z,29.77
2023-05-11T10:55:57.175Z,30.02
2023-05-11T10:58:53.027Z,27.25
2023-05-11T11:01:52.434Z,28.25
2023-05-11T11:04:20.569Z,26.77
2023-05-11T11:06:47.659Z,28.45
2023-05-11T11:09:16.542Z,24.98
2023-05-11T11:11:48.088Z,26.48
2023-05-11T11:14:17.928Z,30.90
2023-05-11T11:17:15.975Z,26.58
2023-05-11T11:19:43.491Z,17.08
2023-05-11T11:22:36.454Z,15.82
2023-05-11T11:25:14.031Z,17.40
2023-05-11T11:27:41.043Z,19.85
2023-05-11T11:30:21.700Z,14.73
2023-05-11T11:32:52.282Z,13.80
2023-05-11T11:35:44.894Z,10.23
2023-05-11T11:38:19.953Z,9.32
2023-05-11T11:40:55.107Z,8.30
2023-05-11T11:43:28.838Z,11.77
2023-05-11T11:46:00.912Z,12.30
2023-05-11T11:48:38.176Z,15.00
2023-05-11T11:51:11.753Z,14.30
2023-05-11T11:53:41.534Z,16.50
2023-05-11T11:56:15.567Z,13.70
2023-05-11T11:58:45.192Z,8.30
2023-05-11T12:01:20.926Z,8.43
2023-05-11T12:04:37.521Z,6.72
2023-05-11T12:07:09.365Z,4.57
2023-05-11T12:09:37.195Z,2.25
2023-05-11T12:12:06.599Z,2.92
2023-05-11T12:14:34.774Z,5.25
2023-05-11T12:17:04.542Z,5.68
2023-05-11T12:19:31.562Z,13.75
2023-05-11T12:21:58.629Z,14.07
2023-05-11T12:24:26.313Z,14.20
2023-05-11T12:26:57.177Z,18.33
2023-05-11T12:29:24.705Z,11.20
2023-05-11T12:31:51.715Z,9.35
2023-05-11T12:34:22.701Z,7.55
2023-05-11T12:36:52.611Z,8.20
2023-05-11T12:39:21.766Z,14.00
2023-05-11T12:41:51.721Z,9.60
2023-05-11T12:44:20.742Z,10.18
2023-05-11T12:46:49.708Z,10.65
2023-05-11T12:49:26.187Z,8.65
2023-05-11T12:52:00.003Z,12.55
2023-05-11T12:54:34.287Z,13.55
2023-05-11T12:57:02.885Z,12.93
2023-05-11T12:59:39.638Z,10.65
2023-05-11T13:02:12.133Z,10.68
2023-05-11T13:04:41.515Z,7.80
2023-05-11T13:07:11.306Z,7.53
2023-05-11T13:09:39.503Z,9.80
2023-05-11T13:12:17.453Z,10.25
2023-05-11T13:14:49.525Z,9.02
2023-05-11T13:17:37.497Z,9.48
2023-05-11T13:20:26.430Z,8.88
2023-05-11T13:23:22.884Z,5.65
2023-05-11T13:25:54.073Z,7.53
2023-05-11T13:28:24.474Z,6.00
2023-05-11T13:30:59.071Z,5.10
2023-05-11T13:33:26.102Z,4.35
2023-05-11T13:35:53.017Z,6.05
2023-05-11T13:38:19.955Z,5.43
2023-05-11T13:40:46.973Z,3.63
2023-05-11T13:43:13.993Z,5.88
2023-05-11T13:45:41.409Z,3.75
2023-05-11T13:48:08.674Z,3.35
2023-05-11T13:50:35.741Z,5.18
2023-05-11T13:53:02.970Z,5.63
2023-05-11T13:55:30.696Z,5.53
2023-05-11T13:57:58.119Z,8.15
2023-05-11T14:00:25.302Z,6.47
2023-05-11T14:02:53.031Z,7.75
2023-05-11T14:05:20.376Z,6.30
2023-05-11T14:07:48.714Z,8.05
2023-05-11T14:10:19.815Z,7.97
2023-05-11T14:12:46.872Z,8.85
2023-05-11T14:15:13.970Z,8.15
2023-05-11T14:17:43.134Z,10.68
2023-05-11T14:20:12.431Z,8.68
2023-05-11T14:22:43.248Z,8.02
2023-05-11T14:25:10.710Z,9.43
2023-05-11T14:27:37.700Z,9.40
2023-05-11T14:30:05.899Z,7.20
2023-05-11T14:32:32.910Z,5.47
2023-05-11T14:34:59.832Z,5.35
2023-05-11T14:37:26.890Z,5.57
2023-05-11T14:39:53.821Z,6.15
2023-05-11T14:42:20.788Z,7.20
2023-05-11T14:44:47.783Z,6.55
2023-05-11T14:47:15.600Z,6.40
2023-05-11T14:49:42.508Z,7.00
2023-05-11T14:52:10.885Z,6.22
2023-05-11T14:54:37.997Z,6.15
2023-05-11T14:57:05.729Z,4.35
2023-05-11T14:59:32.719Z,3.78
2023-05-11T15:02:00.358Z,5.75
2023-05-11T15:04:27.486Z,7.25
2023-05-11T15:06:55.338Z,2.75
2023-05-11T15:09:22.424Z,3.90
2023-05-11T15:11:49.332Z,2.20
2023-05-11T15:14:17.798Z,2.85
2023-05-11T15:16:45.974Z,3.67
2023-05-11T15:19:13.214Z,2.95
2023-05-11T15:21:40.538Z,3.05
2023-05-11T15:24:10.716Z,4.75
2023-05-11T15:26:38.437Z,2.25
2023-05-11T15:29:05.490Z,4.25
2023-05-11T15:31:32.850Z,5.07
2023-05-11T15:34:00.163Z,1.90
2023-05-11T15:36:29.733Z,4.57
2023-05-11T15:38:58.126Z,2.55
2023-05-11T15:41:25.402Z,3.90
2023-05-11T15:43:53.046Z,2.17
2023-05-11T15:46:20.087Z,2.15
2023-05-11T15:48:47.102Z,3.45
2023-05-11T15:51:14.221Z,3.30
2023-05-11T15:53:41.372Z,2.08
2023-05-11T15:56:09.335Z,5.07
2023-05-11T15:58:36.332Z,1.60
2023-05-11T16:01:03.312Z,2.75
2023-05-11T16:03:30.316Z,1.77
2023-05-11T16:05:57.509Z,2.80
2023-05-11T16:08:24.484Z,1.60
2023-05-11T16:10:51.733Z,2.22
2023-05-11T16:13:18.794Z,1.80
2023-05-11T16:15:46.453Z,2.13
2023-05-11T16:18:14.256Z,2.03
2023-05-11T16:20:41.326Z,2.05
2023-05-11T16:23:08.284Z,2.72
2023-05-11T16:25:35.227Z,4.30
2023-05-11T16:28:02.168Z,2.08
2023-05-11T16:30:29.328Z,4.53
2023-05-11T16:32:56.437Z,1.40
2023-05-11T16:35:23.478Z,2.47
2023-05-11T16:37:50.534Z,3.97
2023-05-11T16:40:20.911Z,2.45
2023-05-11T16:42:49.075Z,1.75
2023-05-11T16:45:16.597Z,3.10
2023-05-11T16:47:46.759Z,3.95
2023-05-11T16:50:18.509Z,4.00
2023-05-11T16:52:45.761Z,3.85
2023-05-11T16:55:15.903Z,1.70
2023-05-11T16:57:43.945Z,3.97
2023-05-11T17:00:12.133Z,2.22
2023-05-11T17:02:39.112Z,2.03
2023-05-11T17:05:08.142Z,2.95
2023-05-11T17:07:35.043Z,2.35
2023-05-11T17:10:02.172Z,1.98
2023-05-11T17:12:30.017Z,2.60
2023-05-11T17:14:57.558Z,2.13
2023-05-11T17:17:24.646Z,6.40
2023-05-11T17:19:51.865Z,3.78
2023-05-11T17:22:19.010Z,4.60
2023-05-11T17:24:46.833Z,7.82
2023-05-11T17:27:13.860Z,4.57
2023-05-11T17:29:43.613Z,3.85
2023-05-11T17:32:10.715Z,5.82
2023-05-11T17:34:37.839Z,4.03
2023-05-11T17:37:05.040Z,4.25
2023-05-11T17:39:32.115Z,4.78
2023-05-11T17:41:59.275Z,6.75
2023-05-11T17:44:26.253Z,5.82
2023-05-11T17:46:53.293Z,7.97
2023-05-11T17:49:20.410Z,5.80
2023-05-11T17:51:47.571Z,8.93
2023-05-11T17:54:14.598Z,11.45
2023-05-11T17:56:41.599Z,13.70
2023-05-11T17:59:09.154Z,11.02
2023-05-11T18:01:36.409Z,13.07
2023-05-11T18:04:04.654Z,13.82
2023-05-11T18:06:31.827Z,12.15
2023-05-11T18:08:59.723Z,12.13
2023-05-11T18:11:27.755Z,12.15
2023-05-11T18:13:54.943Z,13.90
2023-05-11T18:16:22.033Z,11.80
2023-05-11T18:18:49.223Z,11.25
2023-05-11T18:21:16.602Z,10.55
2023-05-11T18:23:43.579Z,10.38
2023-05-11T18:26:11.274Z,12.02
2023-05-11T18:28:38.192Z,9.57
2023-05-11T18:31:05.171Z,12.60
2023-05-11T18:33:32.121Z,12.10
2023-05-11T18:35:59.042Z,9.93
2023-05-11T18:38:26.190Z,11.43
2023-05-11T18:40:53.913Z,12.98
2023-05-11T18:43:20.878Z,10.57
2023-05-11T18:45:50.183Z,14.20
2023-05-11T18:48:17.165Z,13.15
2023-05-11T18:50:44.156Z,13.35
2023-05-11T18:53:11.103Z,16.27
2023-05-11T18:55:51.952Z,15.88
2023-05-11T18:58:20.218Z,18.17
2023-05-11T19:00:48.678Z,12.43
2023-05-11T19:03:17.524Z,15.60
2023-05-11T19:05:44.907Z,12.95
2023-05-11T19:08:12.436Z,15.18
2023-05-11T19:10:40.513Z,12.07
2023-05-11T19:13:08.337Z,13.95
2023-05-11T19:15:35.700Z,15.35
2023-05-11T19:18:02.912Z,13.63
2023-05-11T19:20:30.004Z,15.57
2023-05-11T19:22:57.350Z,15.77
2023-05-11T19:25:24.314Z,15.55
2023-05-11T19:27:52.126Z,12.65
2023-05-11T19:30:19.556Z,12.90
2023-05-11T19:32:47.974Z,15.02
2023-05-11T19:35:15.082Z,15.20
2023-05-11T19:37:42.369Z,15.75
2023-05-11T19:40:26.517Z,15.48
2023-05-11T19:42:56.503Z,15.48
2023-05-11T19:45:23.674Z,13.35
2023-05-11T19:47:51.016Z,14.18
2023-05-11T19:50:20.394Z,15.88
2023-05-11T19:52:48.902Z,13.50
2023-05-11T19:55:16.020Z,13.65
2023-05-11T19:57:43.036Z,14.98
2023-05-11T20:00:11.824Z,15.32
2023-05-11T20:02:38.920Z,18.05
2023-05-11T20:05:06.690Z,12.30
2023-05-11T20:07:34.142Z,13.25
2023-05-11T20:10:01.268Z,14.23
2023-05-11T20:12:28.303Z,14.27
2023-05-11T20:14:55.221Z,14.30
2023-05-11T20:17:22.212Z,15.43
2023-05-11T20:19:49.302Z,17.20
2023-05-11T20:22:16.231Z,21.92
2023-05-11T20:24:43.201Z,18.48
2023-05-11T20:27:11.102Z,16.35
2023-05-11T20:29:40.324Z,17.00
2023-05-11T20:32:07.807Z,16.23
2023-05-11T20:34:35.595Z,15.80
2023-05-11T20:37:02.619Z,18.30
2023-05-11T20:39:29.775Z,18.50
2023-05-11T20:41:58.998Z,21.90
2023-05-11T20:44:26.391Z,18.77
2023-05-11T20:46:53.418Z,17.33
2023-05-11T20:49:34.567Z,20.83
2023-05-11T20:52:06.264Z,19.40
2023-05-11T20:54:35.031Z,20.00
2023-05-11T20:57:05.991Z,16.95
2023-05-11T21:02:03.144Z,21.17
2023-05-11T21:04:31.627Z,23.73
2023-05-11T21:06:58.645Z,25.23
2023-05-11T21:09:25.689Z,24.83
2023-05-11T21:11:52.798Z,23.63
2023-05-11T21:14:20.247Z,28.42
2023-05-11T21:16:48.036Z,29.80
2023-05-11T21:19:18.538Z,28.77
2023-05-11T21:21:47.068Z,31.37
2023-05-11T21:24:14.114Z,33.37
2023-05-11T21:26:41.337Z,29.93
2023-05-11T21:29:08.358Z,40.07
2023-05-11T21:31:35.779Z,37.30
2023-05-11T21:34:02.686Z,37.00
2023-05-11T21:36:29.614Z,34.33
2023-05-11T21:38:56.601Z,37.30
2023-05-11T21:41:23.760Z,33.70
2023-05-11T21:43:50.813Z,36.50
2023-05-11T21:46:17.868Z,42.90
2023-05-11T21:48:44.932Z,43.17
2023-05-11T21:51:11.885Z,42.63
2023-05-11T21:53:39.581Z,39.27
2023-05-11T21:56:06.790Z,38.63
2023-05-11T21:58:33.691Z,40.77
2023-05-11T22:01:01.446Z,44.33
2023-05-11T22:03:31.499Z,40.20
2023-05-11T22:05:58.741Z,45.60
2023-05-11T22:08:25.768Z,47.23
2023-05-11T22:10:52.798Z,44.87
2023-05-11T22:13:19.852Z,45.90
2023-05-11T22:15:47.146Z,48.97
2023-05-11T22:18:14.030Z,48.27
2023-05-11T22:20:40.948Z,47.87
2023-05-11T22:23:08.062Z,44.60
2023-05-11T22:25:35.080Z,50.50
2023-05-11T22:28:02.146Z,50.57
2023-05-11T22:30:29.107Z,51.87
2023-05-11T22:32:56.277Z,53.00
2023-05-11T22:35:23.456Z,52.87
2023-05-11T22:37:50.593Z,56.43
2023-05-11T22:40:18.503Z,50.40
2023-05-11T22:42:45.655Z,48.67
2023-05-11T22:45:12.799Z,51.20
2023-05-11T22:47:40.105Z,59.80
2023-05-11T22:50:11.622Z,51.00
2023-05-11T22:52:39.008Z,55.13
2023-05-11T22:55:06.846Z,51.53
2023-05-11T22:57:33.758Z,54.70
2023-05-11T23:00:00.814Z,49.97
2023-05-11T23:02:29.618Z,49.30
2023-05-11T23:04:56.713Z,56.27
2023-05-11T23:07:23.766Z,56.13
2023-05-11T23:09:52.661Z,51.40
2023-05-11T23:12:19.884Z,51.27
2023-05-11T23:14:47.074Z,49.80
2023-05-11T23:17:14.077Z,52.70
2023-05-11T23:19:41.593Z,52.73
2023-05-11T23:22:09.093Z,54.17
2023-05-11T23:24:36.124Z,56.97
2023-05-11T23:27:03.463Z,52.20
2023-05-11T23:29:30.500Z,57.23
2023-05-11T23:31:57.481Z,57.30
2023-05-11T23:34:24.416Z,54.93
2023-05-11T23:36:51.378Z,54.77
2023-05-11T23:39:18.521Z,56.40
2023-05-11T23:41:45.568Z,56.13
2023-05-11T23:44:12.531Z,55.97
2023-05-11T23:46:39.469Z,58.90
2023-05-11T23:49:06.428Z,58.13
2023-05-11T23:51:33.603Z,58.73
2023-05-11T23:54:00.834Z,56.57
2023-05-11T23:56:27.957Z,59.27
2023-05-11T23:58:54.937Z,62.40
